Time;durP1;ratioP1;P1;durP2;ratioP2;P2;SDS_P1;SDS_P2;PMS_P1;PMS_P2;Temp;Humidity;BMP_temperature;BMP_pressure;BME280_temperature;BME280_humidity;BME280_pressure;Samples;Min_cycle;Max_cycle;Signal;HPM_P1;HPM_P2
2023/07/07 00:00:35;;;;;;;9.23;5.38;;;18.60;76.60;;;;;;5001931;28;20037;-68
2023/07/07 00:03:21;;;;;;;7.68;5.13;;;18.60;77.00;;;;;;5002070;28;20050;-69
2023/07/07 00:06:07;;;;;;;9.05;5.65;;;18.60;77.00;;;;;;5006798;28;20041;-68
2023/07/07 00:08:52;;;;;;;7.55;4.70;;;18.50;77.10;;;;;;5009725;28;20479;-68
2023/07/07 00:11:39;;;;;;;7.47;5.43;;;18.50;77.50;;;;;;4994566;28;20045;-68
2023/07/07 00:14:25;;;;;;;10.80;6.25;;;18.50;77.60;;;;;;4990743;28;20041;-68
2023/07/07 00:17:11;;;;;;;14.10;6.35;;;18.40;77.90;;;;;;5009980;28;20132;-68
2023/07/07 00:20:02;;;;;;;7.95;5.47;;;18.40;78.20;;;;;;5006061;28;20037;-68
2023/07/07 00:22:48;;;;;;;9.88;6.13;;;18.40;78.30;;;;;;5011828;28;20144;-69
2023/07/07 00:25:34;;;;;;;9.35;5.95;;;18.40;78.60;;;;;;5008607;28;20033;-69
2023/07/07 00:28:20;;;;;;;8.52;6.10;;;18.40;78.70;;;;;;5009594;28;20042;-69
2023/07/07 00:31:06;;;;;;;10.57;7.15;;;18.30;79.10;;;;;;5007891;28;20376;-69
2023/07/07 00:33:52;;;;;;;11.00;6.40;;;18.30;79.30;;;;;;5009569;28;20084;-69
2023/07/07 00:36:38;;;;;;;8.18;5.63;;;18.30;79.60;;;;;;4991973;28;20038;-68
2023/07/07 00:39:24;;;;;;;9.23;5.97;;;18.20;79.40;;;;;;4992166;28;20091;-68
2023/07/07 00:42:10;;;;;;;9.55;6.10;;;18.20;80.00;;;;;;5000272;28;20034;-69
2023/07/07 00:45:11;;;;;;;9.30;6.13;;;18.10;80.40;;;;;;5003743;28;20019;-69
2023/07/07 00:48:00;;;;;;;11.15;6.57;;;18.20;80.40;;;;;;5010423;28;20033;-69
2023/07/07 00:50:55;;;;;;;9.32;5.38;;;18.10;80.60;;;;;;4999242;28;20480;-69
2023/07/07 00:53:45;;;;;;;10.02;5.25;;;18.10;80.50;;;;;;4990881;28;20030;-68
2023/07/07 00:56:36;;;;;;;7.30;5.10;;;18.00;80.20;;;;;;5007553;28;20046;-69
2023/07/07 00:59:30;;;;;;;13.45;6.10;;;18.10;80.20;;;;;;5008964;28;20033;-68
2023/07/07 01:02:24;;;;;;;7.93;4.60;;;18.00;80.00;;;;;;5007897;28;20030;-69
2023/07/07 01:05:10;;;;;;;6.80;4.38;;;18.00;79.80;;;;;;5000288;28;20038;-69
2023/07/07 01:08:01;;;;;;;5.90;4.45;;;18.00;80.30;;;;;;5003755;28;20021;-69
2023/07/07 01:10:47;;;;;;;5.50;3.88;;;17.90;79.90;;;;;;4997032;28;20522;-69
2023/07/07 01:13:33;;;;;;;6.13;4.22;;;17.90;79.90;;;;;;5001729;28;20089;-69
2023/07/07 01:16:40;;;;;;;7.68;4.57;;;17.80;79.90;;;;;;4996819;28;20399;-69
2023/07/07 01:19:34;;;;;;;8.20;4.40;;;17.80;80.10;;;;;;5003625;28;20037;-69
2023/07/07 01:22:26;;;;;;;7.53;4.87;;;17.80;80.30;;;;;;4999890;28;20479;-68
2023/07/07 01:25:32;;;;;;;7.70;4.10;;;17.70;79.80;;;;;;5002318;28;20281;-68
2023/07/07 01:28:42;;;;;;;7.22;4.85;;;17.70;80.20;;;;;;5002102;28;20144;-67
2023/07/07 01:31:42;;;;;;;6.13;4.45;;;17.70;80.30;;;;;;5002548;28;20084;-68
2023/07/07 01:34:29;;;;;;;4.85;3.63;;;17.60;80.10;;;;;;5007316;28;20111;-66
2023/07/07 01:37:15;;;;;;;5.80;3.78;;;17.60;80.00;;;;;;5009504;28;20601;-67
2023/07/07 01:40:03;;;;;;;5.95;3.75;;;17.60;79.90;;;;;;5000728;28;20034;-68
2023/07/07 01:42:55;;;;;;;5.93;3.90;;;17.60;80.10;;;;;;4989552;28;20033;-67
2023/07/07 01:45:52;;;;;;;4.85;3.13;;;17.60;80.00;;;;;;5001819;28;20502;-67
2023/07/07 01:49:26;;;;;;;11.88;4.25;;;17.60;79.90;;;;;;5008985;28;20041;-68
2023/07/07 01:52:30;;;;;;;5.53;3.38;;;17.60;79.80;;;;;;4990829;28;20121;-68
2023/07/07 01:55:22;;;;;;;6.40;3.88;;;17.50;79.90;;;;;;4997946;28;20026;-68
2023/07/07 01:58:10;;;;;;;4.47;2.88;;;17.40;80.10;;;;;;5009337;28;20030;-68
2023/07/07 02:00:57;;;;;;;4.60;2.78;;;17.40;80.20;;;;;;4999523;28;20022;-67
2023/07/07 02:03:43;;;;;;;5.85;3.42;;;17.40;80.40;;;;;;5007081;28;20038;-68
2023/07/07 02:06:29;;;;;;;7.10;3.33;;;17.40;80.20;;;;;;5013334;28;20029;-67
2023/07/07 02:09:15;;;;;;;5.10;3.45;;;17.40;80.20;;;;;;5009418;28;20072;-67
2023/07/07 02:12:02;;;;;;;6.00;3.25;;;17.40;80.30;;;;;;5011139;28;20046;-66
2023/07/07 02:14:48;;;;;;;4.55;3.10;;;17.40;80.50;;;;;;5012314;28;20040;-67
2023/07/07 02:17:34;;;;;;;6.18;3.70;;;17.30;80.60;;;;;;5007873;28;20033;-68
2023/07/07 02:20:20;;;;;;;4.65;3.15;;;17.30;80.80;;;;;;5011956;28;20022;-68
2023/07/07 02:23:06;;;;;;;5.22;3.80;;;17.30;80.90;;;;;;5010015;28;20037;-68
2023/07/07 02:25:51;;;;;;;5.63;3.58;;;17.30;81.10;;;;;;5004395;28;20141;-69
2023/07/07 02:28:37;;;;;;;5.40;3.55;;;17.20;81.30;;;;;;5010646;28;20038;-69
2023/07/07 02:31:24;;;;;;;7.65;3.63;;;17.20;81.50;;;;;;5007698;28;20023;-71
2023/07/07 02:34:10;;;;;;;4.75;3.60;;;17.20;81.70;;;;;;4993736;28;20428;-70
2023/07/07 02:36:56;;;;;;;4.72;3.30;;;17.20;81.90;;;;;;4992748;28;20046;-70
2023/07/07 02:39:44;;;;;;;6.00;3.80;;;17.20;82.20;;;;;;4994680;28;20042;-70
2023/07/07 02:42:30;;;;;;;4.50;3.47;;;17.20;82.30;;;;;;5001520;28;20093;-71
2023/07/07 02:45:16;;;;;;;6.90;3.60;;;17.10;82.50;;;;;;4999649;28;20030;-70
2023/07/07 02:48:02;;;;;;;5.55;3.90;;;17.10;82.80;;;;;;4993069;28;20030;-70
2023/07/07 02:50:55;;;;;;;5.90;3.70;;;17.10;83.10;;;;;;5002759;28;20034;-70
2023/07/07 02:53:41;;;;;;;5.55;3.97;;;17.00;83.30;;;;;;5005582;28;20049;-68
2023/07/07 02:56:27;;;;;;;5.57;3.85;;;17.00;83.50;;;;;;5010490;28;20038;-69
2023/07/07 02:59:13;;;;;;;5.38;3.97;;;17.00;83.80;;;;;;5010529;28;20030;-66
2023/07/07 03:01:59;;;;;;;6.03;3.88;;;17.00;84.10;;;;;;5009394;28;20049;-69
2023/07/07 03:04:47;;;;;;;8.85;4.68;;;17.00;84.40;;;;;;5007090;28;20431;-68
2023/07/07 03:07:33;;;;;;;9.43;4.35;;;17.00;84.60;;;;;;4992028;28;20129;-68
2023/07/07 03:10:19;;;;;;;4.53;3.65;;;17.00;84.80;;;;;;5005798;28;20038;-68
2023/07/07 03:13:05;;;;;;;5.07;3.55;;;17.00;84.90;;;;;;5007926;28;20054;-69
2023/07/07 03:15:52;;;;;;;4.93;4.03;;;16.90;85.20;;;;;;4997865;28;20041;-68
2023/07/07 03:18:40;;;;;;;6.20;4.65;;;16.90;85.40;;;;;;5000933;28;20034;-68
2023/07/07 03:21:26;;;;;;;5.85;3.97;;;17.00;85.60;;;;;;5011808;28;20034;-69
2023/07/07 03:24:14;;;;;;;5.57;3.92;;;17.00;85.80;;;;;;5010979;28;20538;-69
2023/07/07 03:27:01;;;;;;;7.72;4.07;;;17.00;86.00;;;;;;5011680;28;20042;-69
2023/07/07 03:29:49;;;;;;;6.70;3.90;;;17.00;86.20;;;;;;5009426;28;20022;-70
2023/07/07 03:32:35;;;;;;;6.80;4.85;;;17.00;86.40;;;;;;4995254;28;20026;-69
2023/07/07 03:35:21;;;;;;;5.50;4.13;;;17.10;86.50;;;;;;4996686;28;20038;-70
2023/07/07 03:38:07;;;;;;;7.80;4.10;;;17.10;86.70;;;;;;4997020;28;20441;-69
2023/07/07 03:40:53;;;;;;;5.35;3.78;;;17.10;87.30;;;;;;5004732;28;20489;-69
2023/07/07 03:43:39;;;;;;;5.70;4.40;;;17.10;87.10;;;;;;5011678;28;20503;-68
2023/07/07 03:46:27;;;;;;;5.97;4.05;;;17.10;87.20;;;;;;4999495;28;20429;-69
2023/07/07 03:49:13;;;;;;;7.47;4.35;;;17.10;87.30;;;;;;4992143;28;20046;-69
2023/07/07 03:51:59;;;;;;;6.32;4.40;;;17.10;87.50;;;;;;5000594;28;20576;-69
2023/07/07 03:54:45;;;;;;;4.97;3.50;;;17.20;87.70;;;;;;5007944;28;20121;-68
2023/07/07 03:57:31;;;;;;;5.80;3.92;;;17.20;87.80;;;;;;5009968;28;20042;-68
2023/07/07 04:00:17;;;;;;;6.35;4.45;;;17.20;87.90;;;;;;5005928;28;20037;-68
2023/07/07 04:03:02;;;;;;;6.80;3.80;;;17.30;88.30;;;;;;4997166;28;20042;-68
2023/07/07 04:05:49;;;;;;;7.90;4.18;;;17.30;88.50;;;;;;4996831;28;20077;-68
2023/07/07 04:08:35;;;;;;;5.43;3.97;;;17.40;88.80;;;;;;5007469;28;20399;-71
2023/07/07 04:11:22;;;;;;;6.95;4.30;;;17.40;88.90;;;;;;5005937;28;20037;-71
2023/07/07 04:14:08;;;;;;;5.47;3.60;;;17.50;89.10;;;;;;4999839;28;20042;-71
2023/07/07 04:16:54;;;;;;;5.50;3.60;;;17.50;89.20;;;;;;4994092;28;20049;-68
2023/07/07 04:19:40;;;;;;;6.50;4.35;;;17.50;89.20;;;;;;4996864;28;20056;-68
2023/07/07 04:22:26;;;;;;;5.97;4.32;;;17.60;89.40;;;;;;4990706;28;20077;-68
2023/07/07 04:25:16;;;;;;;7.75;3.83;;;17.60;89.50;;;;;;5003377;28;20092;-69
2023/07/07 04:28:03;;;;;;;6.35;3.50;;;17.60;89.40;;;;;;5008321;28;20479;-68
2023/07/07 04:30:51;;;;;;;5.28;3.85;;;17.70;89.00;;;;;;5005952;28;20014;-69
2023/07/07 04:33:38;;;;;;;6.47;4.00;;;17.70;88.90;;;;;;5007776;28;20045;-69
2023/07/07 04:36:24;;;;;;;8.82;3.63;;;17.80;89.10;;;;;;5010150;28;20057;-68
2023/07/07 04:39:10;;;;;;;7.25;3.90;;;17.80;89.00;;;;;;5009572;28;20560;-68
2023/07/07 04:41:56;;;;;;;5.18;3.72;;;17.80;89.00;;;;;;4998222;28;20026;-68
2023/07/07 04:44:42;;;;;;;7.55;4.20;;;17.80;89.10;;;;;;5009459;28;20116;-69
2023/07/07 04:47:27;;;;;;;7.22;4.18;;;17.90;89.10;;;;;;5011760;28;20183;-68
2023/07/07 04:50:13;;;;;;;6.88;3.75;;;17.90;89.10;;;;;;5009130;28;20161;-68
2023/07/07 04:52:59;;;;;;;5.78;4.10;;;18.00;88.80;;;;;;5008255;28;20038;-68
2023/07/07 04:55:45;;;;;;;6.63;4.00;;;18.00;88.70;;;;;;5006911;28;20033;-69
2023/07/07 04:58:31;;;;;;;7.00;4.10;;;18.00;88.50;;;;;;5000056;28;20053;-69
2023/07/07 05:01:24;;;;;;;5.45;3.53;;;18.00;88.50;;;;;;5006875;28;20040;-69
2023/07/07 05:04:10;;;;;;;5.53;3.70;;;18.10;87.80;;;;;;4991292;28;20034;-68
2023/07/07 05:06:56;;;;;;;5.90;4.07;;;18.10;87.50;;;;;;4996214;28;20030;-68
2023/07/07 05:09:42;;;;;;;7.03;3.75;;;18.20;87.60;;;;;;5008111;28;20181;-69
2023/07/07 05:12:28;;;;;;;7.68;4.10;;;18.20;87.60;;;;;;5009229;28;20209;-69
2023/07/07 05:15:14;;;;;;;9.55;4.55;;;18.20;87.40;;;;;;5002141;28;20030;-68
2023/07/07 05:18:00;;;;;;;6.65;4.07;;;18.30;86.90;;;;;;5010456;28;20092;-69
2023/07/07 05:20:46;;;;;;;9.82;3.70;;;18.30;86.80;;;;;;5006387;28;20041;-68
2023/07/07 05:23:32;;;;;;;6.45;3.97;;;18.40;86.50;;;;;;5000942;28;20173;-68
2023/07/07 05:26:19;;;;;;;8.18;4.50;;;18.50;86.10;;;;;;5004724;28;20045;-66
2023/07/07 05:29:05;;;;;;;5.05;3.20;;;18.50;86.20;;;;;;5006347;28;20026;-69
2023/07/07 05:31:51;;;;;;;8.25;3.08;;;18.50;85.60;;;;;;5008542;28;20482;-72
2023/07/07 05:34:37;;;;;;;6.85;3.65;;;18.60;85.50;;;;;;5003153;28;20467;-74
2023/07/07 05:37:23;;;;;;;4.57;3.40;;;18.70;84.80;;;;;;4989148;28;20038;-70
2023/07/07 05:40:09;;;;;;;7.20;3.45;;;18.80;84.90;;;;;;4997648;28;20038;-70
2023/07/07 05:42:55;;;;;;;4.22;3.03;;;18.80;84.90;;;;;;5012406;28;20088;-69
2023/07/07 05:45:41;;;;;;;6.05;3.58;;;18.90;84.90;;;;;;4998674;28;20030;-71
2023/07/07 05:48:28;;;;;;;6.95;3.47;;;18.90;84.50;;;;;;4994987;28;20077;-70
2023/07/07 05:51:16;;;;;;;6.65;2.83;;;19.00;84.00;;;;;;5011614;28;20076;-70
2023/07/07 05:54:02;;;;;;;5.82;3.50;;;19.10;84.20;;;;;;5013216;28;20092;-70
2023/07/07 05:56:49;;;;;;;6.45;3.38;;;19.20;83.80;;;;;;5002613;28;20088;-69
2023/07/07 05:59:35;;;;;;;7.00;3.92;;;19.30;83.50;;;;;;5003169;28;20034;-69
2023/07/07 06:02:21;;;;;;;9.52;2.53;;;19.40;83.40;;;;;;5013176;28;20049;-69
2023/07/07 06:05:07;;;;;;;11.75;2.83;;;19.50;83.30;;;;;;5011315;28;20037;-70
2023/07/07 06:07:54;;;;;;;11.32;3.83;;;19.50;82.80;;;;;;5014292;28;20080;-70
2023/07/07 06:10:40;;;;;;;6.20;3.97;;;19.60;82.00;;;;;;5012233;28;20034;-68
2023/07/07 06:13:28;;;;;;;7.65;3.25;;;19.70;81.90;;;;;;5007877;28;20577;-69
2023/07/07 06:16:14;;;;;;;5.63;2.70;;;19.80;81.70;;;;;;4997175;28;20074;-73
2023/07/07 06:19:01;;;;;;;3.50;2.33;;;19.90;80.80;;;;;;5000041;28;20037;-73
2023/07/07 06:21:47;;;;;;;3.72;2.40;;;20.00;80.10;;;;;;5005184;28;20045;-74
2023/07/07 06:24:33;;;;;;;9.23;2.85;;;20.00;80.10;;;;;;5007957;28;20418;-73
2023/07/07 06:27:20;;;;;;;6.25;2.55;;;20.10;79.60;;;;;;4994158;28;20036;-73
2023/07/07 06:30:07;;;;;;;4.93;2.58;;;20.20;79.30;;;;;;4994564;28;20057;-72
2023/07/07 06:32:53;;;;;;;4.22;2.40;;;20.30;79.10;;;;;;5006723;28;20109;-72
2023/07/07 06:35:38;;;;;;;5.57;2.42;;;20.40;78.80;;;;;;5002083;28;20095;-71
2023/07/07 06:38:24;;;;;;;3.67;2.47;;;20.40;78.80;;;;;;5010873;28;20100;-72
2023/07/07 06:41:11;;;;;;;5.53;2.15;;;20.50;78.00;;;;;;5008608;28;20029;-72
2023/07/07 06:43:57;;;;;;;4.88;2.35;;;20.60;77.90;;;;;;5002393;28;20132;-72
2023/07/07 06:46:44;;;;;;;4.95;2.00;;;20.70;77.50;;;;;;5008748;28;20030;-73
2023/07/07 06:49:29;;;;;;;4.10;1.92;;;20.80;77.00;;;;;;5006916;28;20038;-72
2023/07/07 06:52:15;;;;;;;3.92;2.05;;;20.90;76.40;;;;;;5009764;28;20026;-72
2023/07/07 06:55:01;;;;;;;3.58;2.10;;;20.90;75.60;;;;;;5003206;28;20146;-72
2023/07/07 06:57:47;;;;;;;3.45;1.90;;;21.00;74.70;;;;;;5008521;28;20474;-72
2023/07/07 07:00:34;;;;;;;2.63;2.28;;;21.10;75.00;;;;;;5008771;28;20057;-72
2023/07/07 07:03:20;;;;;;;13.95;4.18;;;21.20;73.80;;;;;;4998143;28;20038;-72
2023/07/07 07:06:07;;;;;;;3.72;2.00;;;21.30;73.90;;;;;;5002980;28;20076;-72
2023/07/07 07:08:53;;;;;;;7.30;3.13;;;21.40;73.30;;;;;;5019211;28;20116;-71
2023/07/07 07:11:39;;;;;;;5.32;2.28;;;21.50;73.00;;;;;;5004129;28;20111;-72
2023/07/07 07:14:26;;;;;;;5.20;2.65;;;21.50;72.70;;;;;;4999151;28;20050;-72
2023/07/07 07:17:12;;;;;;;4.32;1.90;;;21.60;72.20;;;;;;5008508;28;20037;-72
2023/07/07 07:19:58;;;;;;;2.45;1.70;;;21.70;71.80;;;;;;5007544;28;20034;-71
2023/07/07 07:22:44;;;;;;;2.97;1.60;;;21.80;72.00;;;;;;4993219;28;20399;-71
2023/07/07 07:25:30;;;;;;;2.83;1.90;;;21.90;71.20;;;;;;5000860;28;20062;-72
2023/07/07 07:28:16;;;;;;;5.30;2.00;;;22.00;71.10;;;;;;5011066;28;20450;-72
2023/07/07 07:31:02;;;;;;;4.15;1.70;;;22.00;71.00;;;;;;5000165;28;20049;-71
2023/07/07 07:33:51;;;;;;;4.68;1.92;;;22.10;70.40;;;;;;5009275;28;20041;-71
2023/07/07 07:36:37;;;;;;;6.03;1.95;;;22.20;69.40;;;;;;5002223;28;20038;-72
2023/07/07 07:39:23;;;;;;;4.10;2.08;;;22.30;69.60;;;;;;5009089;28;20041;-71
2023/07/07 07:42:09;;;;;;;2.85;1.95;;;22.30;69.90;;;;;;5011509;28;20030;-71
2023/07/07 07:44:55;;;;;;;2.90;1.70;;;22.40;69.60;;;;;;5002537;28;20030;-71
2023/07/07 07:47:41;;;;;;;2.10;1.42;;;22.50;69.40;;;;;;5006844;28;20042;-72
2023/07/07 07:50:28;;;;;;;4.13;1.70;;;22.60;68.10;;;;;;5007860;28;20065;-73
2023/07/07 07:53:14;;;;;;;4.00;1.70;;;22.60;68.60;;;;;;4993169;28;20033;-72
2023/07/07 07:56:00;;;;;;;4.50;1.88;;;22.70;67.60;;;;;;5005525;28;20058;-73
2023/07/07 07:58:47;;;;;;;9.65;2.72;;;22.70;67.50;;;;;;5011213;28;20029;-72
2023/07/07 08:01:33;;;;;;;5.25;1.40;;;22.80;68.10;;;;;;5009886;28;20034;-72
2023/07/07 08:04:19;;;;;;;2.58;1.73;;;22.90;67.90;;;;;;5007736;28;20053;-72
2023/07/07 08:07:05;;;;;;;2.47;1.60;;;23.00;66.90;;;;;;5008374;28;20042;-72
2023/07/07 08:09:51;;;;;;;4.10;2.28;;;23.10;66.80;;;;;;5008292;28;20022;-72
2023/07/07 08:12:37;;;;;;;6.80;1.70;;;23.10;66.90;;;;;;5010131;28;20045;-72
2023/07/07 08:15:23;;;;;;;5.55;2.00;;;23.20;66.60;;;;;;4995621;28;20045;-72
2023/07/07 08:18:09;;;;;;;6.63;1.75;;;23.30;66.60;;;;;;4991875;28;20038;-73
2023/07/07 08:20:55;;;;;;;3.60;1.75;;;23.40;66.50;;;;;;5005701;28;20034;-72
2023/07/07 08:23:41;;;;;;;3.90;1.98;;;23.50;66.30;;;;;;4999434;28;20030;-73
2023/07/07 08:26:27;;;;;;;3.28;1.65;;;23.50;66.30;;;;;;4990970;28;20034;-73
2023/07/07 08:29:13;;;;;;;3.72;2.00;;;23.60;65.40;;;;;;4999926;28;20076;-73
2023/07/07 08:31:59;;;;;;;2.78;1.80;;;23.70;65.60;;;;;;4993660;28;20044;-72
2023/07/07 08:34:45;;;;;;;5.00;1.88;;;23.70;65.50;;;;;;4998338;28;20031;-73
2023/07/07 08:37:33;;;;;;;4.43;1.60;;;23.80;64.60;;;;;;5005031;28;20073;-73
2023/07/07 08:40:23;;;;;;;2.13;1.90;;;23.80;64.90;;;;;;5003787;28;20034;-73
2023/07/07 08:43:11;;;;;;;3.28;1.73;;;23.90;65.10;;;;;;5006120;28;20044;-73
2023/07/07 08:46:25;;;;;;;5.47;1.70;;;24.00;65.10;;;;;;4996212;28;20097;-73
2023/07/07 08:49:34;;;;;;;2.17;1.40;;;24.10;63.70;;;;;;5002382;28;20026;-73
2023/07/07 08:52:38;;;;;;;2.22;1.35;;;24.10;63.40;;;;;;5007035;28;20044;-73
2023/07/07 08:55:48;;;;;;;2.33;1.30;;;24.20;63.20;;;;;;5010162;28;20041;-73
2023/07/07 08:58:59;;;;;;;2.85;1.83;;;24.20;61.80;;;;;;5005857;28;20164;-73
2023/07/07 09:01:59;;;;;;;2.13;1.42;;;24.30;62.20;;;;;;5004877;28;20026;-73
2023/07/07 09:04:59;;;;;;;2.90;1.48;;;24.30;61.90;;;;;;4995952;28;20116;-73
2023/07/07 09:08:19;;;;;;;2.40;1.67;;;24.40;61.20;;;;;;5002529;28;20109;-73
2023/07/07 09:11:28;;;;;;;2.45;1.45;;;24.40;60.80;;;;;;5006545;28;20108;-73
2023/07/07 09:14:14;;;;;;;4.85;1.50;;;24.50;61.30;;;;;;4992854;28;20083;-73
2023/07/07 09:17:05;;;;;;;3.58;1.40;;;24.50;61.00;;;;;;4994642;28;20498;-73
2023/07/07 09:19:53;;;;;;;3.03;1.50;;;24.60;60.60;;;;;;5003006;28;20100;-73
2023/07/07 09:22:47;;;;;;;7.63;1.33;;;24.70;60.90;;;;;;5007526;28;20034;-73
2023/07/07 09:25:44;;;;;;;4.70;1.45;;;24.80;60.20;;;;;;5000379;28;20030;-73
2023/07/07 09:28:39;;;;;;;2.25;1.30;;;24.80;59.50;;;;;;4995625;28;20030;-73
2023/07/07 09:31:31;;;;;;;3.67;1.90;;;24.90;59.10;;;;;;4989457;28;20053;-73
2023/07/07 09:34:17;;;;;;;4.07;1.40;;;25.00;59.40;;;;;;5000610;28;20060;-73
2023/07/07 09:37:12;;;;;;;4.45;1.65;;;25.00;59.70;;;;;;4992740;28;20087;-72
2023/07/07 09:40:25;;;;;;;3.15;1.75;;;25.10;59.40;;;;;;4999339;28;20022;-72
2023/07/07 09:43:30;;;;;;;1.75;1.40;;;25.20;59.40;;;;;;4996161;28;20050;-72
2023/07/07 09:46:44;;;;;;;1.85;1.30;;;25.20;58.20;;;;;;5006032;28;20403;-72
2023/07/07 09:49:51;;;;;;;2.50;1.30;;;25.30;58.80;;;;;;5001661;28;20450;-73
2023/07/07 09:52:48;;;;;;;5.35;1.20;;;25.30;59.00;;;;;;5002196;28;20038;-72
2023/07/07 09:55:36;;;;;;;4.53;1.95;;;25.30;57.40;;;;;;4998362;28;20031;-72
2023/07/07 09:58:31;;;;;;;2.88;1.52;;;25.40;55.90;;;;;;5004494;28;20491;-72
2023/07/07 10:01:18;;;;;;;2.33;1.35;;;25.40;56.60;;;;;;5006727;28;20489;-71
2023/07/07 10:04:16;;;;;;;4.18;1.40;;;25.50;57.10;;;;;;5009424;28;20038;-71
2023/07/07 10:07:06;;;;;;;3.97;1.20;;;25.50;56.30;;;;;;5007001;28;20458;-72
2023/07/07 10:09:53;;;;;;;2.35;1.42;;;25.50;55.70;;;;;;5003517;28;20044;-72
2023/07/07 10:12:39;;;;;;;2.30;1.17;;;25.60;56.30;;;;;;4998044;28;20627;-72
2023/07/07 10:15:41;;;;;;;3.60;1.52;;;25.70;56.20;;;;;;5006171;28;20069;-71
2023/07/07 10:18:30;;;;;;;2.65;1.50;;;25.70;56.50;;;;;;4998127;28;20046;-73
2023/07/07 10:21:18;;;;;;;2.45;1.55;;;25.80;55.70;;;;;;5007010;28;20034;-72
2023/07/07 10:24:05;;;;;;;2.30;1.30;;;25.90;56.30;;;;;;5008462;28;20045;-72
2023/07/07 10:26:51;;;;;;;1.58;1.17;;;25.90;54.90;;;;;;5006510;28;20084;-73
2023/07/07 10:29:40;;;;;;;3.17;1.30;;;26.00;55.70;;;;;;5012345;28;20088;-73
2023/07/07 10:32:27;;;;;;;2.35;1.02;;;26.00;55.00;;;;;;5013042;28;20720;-73
2023/07/07 10:35:18;;;;;;;1.10;1.00;;;26.00;54.80;;;;;;5012904;28;20030;-73
2023/07/07 10:38:05;;;;;;;2.13;1.40;;;26.00;54.30;;;;;;5011971;28;20034;-73
2023/07/07 10:40:51;;;;;;;3.38;1.30;;;26.10;55.50;;;;;;5006532;28;20475;-72
2023/07/07 10:43:37;;;;;;;1.95;1.33;;;26.10;55.60;;;;;;5007917;28;20038;-73
2023/07/07 10:46:23;;;;;;;3.65;1.70;;;26.20;54.30;;;;;;5010897;28;20088;-73
2023/07/07 10:49:16;;;;;;;1.95;1.40;;;26.20;54.70;;;;;;5011395;28;20061;-73
2023/07/07 10:52:22;;;;;;;1.52;1.30;;;26.20;54.70;;;;;;4996721;28;22842;-72
2023/07/07 10:55:37;;;;;;;2.10;1.38;;;26.30;53.70;;;;;;5012161;28;20049;-73
2023/07/07 10:58:38;;;;;;;1.95;1.35;;;26.40;53.80;;;;;;5006543;28;20180;-72
2023/07/07 11:01:45;;;;;;;6.32;1.58;;;26.40;53.20;;;;;;5010404;28;20034;-72
2023/07/07 11:04:51;;;;;;;3.35;1.40;;;26.50;53.70;;;;;;5007621;28;20084;-71
2023/07/07 11:07:45;;;;;;;;;;;26.50;53.70;;;;;;5011722;28;20029;-72
2023/07/07 11:10:43;;;;;;;3.73;1.83;;;26.50;54.20;;;;;;5008768;28;20023;-72
2023/07/07 11:13:42;;;;;;;1.35;1.00;;;26.50;53.00;;;;;;5005873;28;20042;-72
2023/07/07 11:16:31;;;;;;;2.13;1.50;;;26.50;52.20;;;;;;5011507;28;20034;-72
2023/07/07 11:19:34;;;;;;;2.33;1.33;;;26.60;52.10;;;;;;5011114;28;20042;-72
2023/07/07 11:22:50;;;;;;;2.70;1.48;;;26.60;52.60;;;;;;5011926;28;20061;-72
2023/07/07 11:26:12;;;;;;;2.22;1.23;;;26.70;52.50;;;;;;5010468;28;20120;-72
2023/07/07 11:29:19;;;;;;;2.42;1.50;;;26.70;53.40;;;;;;4972685;28;20042;-72
2023/07/07 11:32:26;;;;;;;2.22;1.48;;;26.80;52.70;;;;;;5009576;28;20034;-72
2023/07/07 11:35:53;;;;;;;3.15;1.67;;;26.80;53.30;;;;;;5011422;28;20042;-71
2023/07/07 11:38:57;;;;;;;3.05;1.35;;;26.90;53.70;;;;;;5008760;28;20503;-71
2023/07/07 11:41:51;;;;;;;2.65;1.38;;;26.90;53.20;;;;;;4991785;28;20064;-72
2023/07/07 11:44:57;;;;;;;3.70;1.80;;;27.00;53.00;;;;;;4993438;28;20030;-74
2023/07/07 11:47:56;;;;;;;4.05;1.65;;;27.00;51.50;;;;;;5008354;28;20049;-72
2023/07/07 11:51:09;;;;;;;2.00;0.98;;;27.00;51.60;;;;;;5004632;28;20057;-71
2023/07/07 11:54:17;;;;;;;3.00;1.42;;;27.00;52.00;;;;;;4980451;28;20133;-72
2023/07/07 11:57:15;;;;;;;2.35;1.40;;;27.00;52.20;;;;;;5000500;28;20052;-72
2023/07/07 12:00:13;;;;;;;2.22;1.20;;;27.00;52.40;;;;;;5005377;28;20040;-71
2023/07/07 12:03:14;;;;;;;2.38;1.75;;;27.10;52.30;;;;;;5006873;28;20029;-72
2023/07/07 12:06:25;;;;;;;3.28;1.50;;;27.10;52.20;;;;;;5009651;28;20034;-72
2023/07/07 12:09:32;;;;;;;2.25;1.40;;;27.20;52.30;;;;;;5009159;28;20112;-71
2023/07/07 12:12:23;;;;;;;2.78;1.45;;;27.20;52.50;;;;;;4995472;28;20050;-72
2023/07/07 12:15:26;;;;;;;2.45;1.40;;;27.30;52.20;;;;;;4993702;28;20029;-75
2023/07/07 12:18:19;;;;;;;5.25;1.52;;;27.40;52.40;;;;;;5005688;28;20316;-75
2023/07/07 12:21:20;;;;;;;2.55;1.60;;;27.50;52.10;;;;;;5005110;28;20378;-77
2023/07/07 12:24:19;;;;;;;3.28;1.65;;;27.50;51.50;;;;;;5001424;28;20234;-74
2023/07/07 12:27:23;;;;;;;3.97;1.75;;;27.50;51.70;;;;;;5004293;28;20034;-74
2023/07/07 12:30:27;;;;;;;5.57;1.50;;;27.60;51.60;;;;;;4999344;28;20121;-73
2023/07/07 12:33:15;;;;;;;2.22;1.33;;;27.70;51.90;;;;;;5006569;28;20029;-73
2023/07/07 12:36:01;;;;;;;2.55;1.63;;;27.70;51.20;;;;;;5005848;28;20053;-74
2023/07/07 12:38:54;;;;;;;2.95;1.40;;;27.80;51.30;;;;;;4997673;28;20034;-76
2023/07/07 12:41:40;;;;;;;5.30;1.80;;;27.90;50.70;;;;;;5004646;28;20026;-75
2023/07/07 12:44:26;;;;;;;2.90;1.75;;;27.90;50.80;;;;;;5006616;28;20037;-77
2023/07/07 12:47:36;;;;;;;3.35;1.60;;;28.00;50.60;;;;;;4999321;28;20034;-75
2023/07/07 12:50:30;;;;;;;2.83;1.85;;;28.10;51.20;;;;;;5003562;28;20042;-75
2023/07/07 12:53:24;;;;;;;2.13;1.65;;;28.20;50.20;;;;;;4991349;28;20046;-75
2023/07/07 12:56:10;;;;;;;1.65;1.25;;;28.30;50.50;;;;;;5002371;28;20040;-72
2023/07/07 12:59:01;;;;;;;5.60;1.92;;;28.30;50.60;;;;;;5000106;28;20567;-64
2023/07/07 13:02:11;;;;;;;4.45;1.25;;;28.40;50.80;;;;;;5001873;28;20085;-61
2023/07/07 13:05:14;;;;;;;5.82;2.17;;;28.40;51.00;;;;;;5001791;28;20018;-63
2023/07/07 13:08:01;;;;;;;2.28;1.60;;;28.50;51.10;;;;;;5002944;28;20041;-64
2023/07/07 13:10:48;;;;;;;5.18;1.73;;;28.60;51.10;;;;;;5000970;28;20054;-62
2023/07/07 13:13:38;;;;;;;8.40;2.03;;;28.70;50.30;;;;;;5006871;28;20058;-63
2023/07/07 13:16:25;;;;;;;2.78;1.63;;;28.90;50.50;;;;;;5008401;28;20050;-62
2023/07/07 13:19:10;;;;;;;2.30;1.55;;;28.90;50.20;;;;;;5007659;28;20084;-63
2023/07/07 13:22:01;;;;;;;2.80;1.33;;;29.00;49.30;;;;;;5008477;28;20033;-61
2023/07/07 13:24:47;;;;;;;2.25;1.42;;;29.10;49.70;;;;;;5001750;28;20109;-63
2023/07/07 13:27:34;;;;;;;3.00;1.67;;;29.10;49.10;;;;;;4995710;28;20395;-63
2023/07/07 13:30:35;;;;;;;2.88;1.70;;;29.20;49.20;;;;;;5001751;28;20030;-64
2023/07/07 13:33:24;;;;;;;3.05;1.50;;;29.30;49.70;;;;;;4991378;28;20227;-63
2023/07/07 13:36:10;;;;;;;2.80;1.45;;;29.40;48.90;;;;;;5001580;28;20037;-63
2023/07/07 13:38:57;;;;;;;2.72;1.65;;;29.40;48.90;;;;;;4999753;28;20052;-63
2023/07/07 13:41:45;;;;;;;2.90;1.88;;;29.50;48.90;;;;;;4998441;28;20055;-62
2023/07/07 13:44:37;;;;;;;2.45;1.48;;;29.60;49.50;;;;;;4999096;28;20042;-63
2023/07/07 13:47:24;;;;;;;3.28;1.50;;;29.70;48.70;;;;;;5000987;28;20030;-63
2023/07/07 13:50:29;;;;;;;2.25;1.50;;;29.70;48.30;;;;;;5005688;28;20041;-63
2023/07/07 13:53:15;;;;;;;2.22;1.33;;;29.80;48.00;;;;;;4997488;28;20029;-63
2023/07/07 13:56:02;;;;;;;2.33;1.58;;;30.00;47.50;;;;;;4999705;28;20375;-63
2023/07/07 13:58:50;;;;;;;2.28;1.50;;;30.10;48.10;;;;;;4996600;28;20125;-63
2023/07/07 14:01:41;;;;;;;3.75;1.95;;;30.20;48.00;;;;;;5007016;28;20446;-62
2023/07/07 14:04:38;;;;;;;5.68;1.83;;;30.20;47.70;;;;;;5009089;28;20437;-62
2023/07/07 14:07:24;;;;;;;2.42;1.90;;;30.30;47.60;;;;;;5005594;28;20137;-62
2023/07/07 14:10:48;;;;;;;2.72;1.75;;;30.30;47.70;;;;;;5008019;28;20034;-63
2023/07/07 14:13:34;;;;;;;3.95;1.85;;;30.30;47.90;;;;;;5009880;28;20082;-63
2023/07/07 14:16:29;;;;;;;4.03;2.05;;;30.40;47.80;;;;;;5009507;28;20030;-62
2023/07/07 14:19:15;;;;;;;;;;;30.60;47.70;;;;;;5005472;28;20407;-62
2023/07/07 14:22:01;;;;;;;2.63;1.60;;;30.60;48.20;;;;;;5007655;28;19967;-62
2023/07/07 14:24:47;;;;;;;3.67;2.00;;;30.70;47.30;;;;;;5002781;28;20136;-63
2023/07/07 14:27:33;;;;;;;2.10;1.65;;;30.70;47.20;;;;;;5010077;28;20428;-62
2023/07/07 14:30:23;;;;;;;2.83;1.83;;;30.80;47.00;;;;;;5009510;28;20038;-63
2023/07/07 14:33:10;;;;;;;5.72;1.60;;;30.90;46.40;;;;;;4993701;28;20053;-63
2023/07/07 14:36:01;;;;;;;2.58;1.77;;;30.70;45.70;;;;;;5005261;28;20034;-63
2023/07/07 14:38:56;;;;;;;2.47;1.70;;;30.80;46.50;;;;;;5004975;28;20431;-63
2023/07/07 14:41:42;;;;;;;5.32;2.08;;;30.80;46.40;;;;;;5005276;28;20044;-63
2023/07/07 14:44:49;;;;;;;1.98;1.60;;;30.70;46.00;;;;;;5008791;28;20034;-63
2023/07/07 14:47:35;;;;;;;4.03;1.48;;;30.80;46.10;;;;;;5007975;28;20034;-63
2023/07/07 14:50:21;;;;;;;2.95;1.88;;;30.90;46.10;;;;;;4996952;28;20396;-63